createdAt,value
2022-12-03T00:01:15.274Z,6.70
2022-12-03T00:03:42.460Z,6.70
2022-12-03T00:06:09.653Z,7.10
2022-12-03T00:08:36.552Z,6.90
2022-12-03T00:11:03.434Z,6.90
2022-12-03T00:13:30.363Z,6.90
2022-12-03T00:15:57.399Z,6.90
2022-12-03T00:18:24.372Z,6.70
2022-12-03T00:20:51.415Z,6.90
2022-12-03T00:23:18.440Z,7.10
2022-12-03T00:25:45.374Z,7.00
2022-12-03T00:28:12.346Z,6.90
2022-12-03T00:30:39.340Z,7.10
2022-12-03T00:33:06.216Z,6.90
2022-12-03T00:35:33.163Z,7.10
2022-12-03T00:38:00.085Z,7.00
2022-12-03T00:40:26.955Z,6.90
2022-12-03T00:42:53.938Z,7.10
2022-12-03T00:45:20.864Z,6.90
2022-12-03T00:47:47.743Z,6.90
2022-12-03T00:50:14.696Z,6.80
2022-12-03T00:52:41.648Z,6.90
2022-12-03T00:55:09.119Z,7.00
2022-12-03T00:57:35.979Z,6.90
2022-12-03T01:00:03.706Z,6.90
2022-12-03T01:02:30.570Z,6.80
2022-12-03T01:04:57.635Z,6.90
2022-12-03T01:07:25.438Z,6.80
2022-12-03T01:09:52.481Z,6.90
2022-12-03T01:12:19.388Z,6.80
2022-12-03T01:14:46.373Z,6.90
2022-12-03T01:17:13.400Z,6.50
2022-12-03T01:19:46.508Z,6.90
2022-12-03T01:22:15.046Z,6.90
2022-12-03T01:24:41.989Z,6.90
2022-12-03T01:27:08.919Z,6.90
2022-12-03T01:29:36.019Z,6.80
2022-12-03T01:32:19.175Z,7.00
2022-12-03T01:34:49.618Z,6.80
2022-12-03T01:37:16.906Z,6.80
2022-12-03T01:39:43.778Z,6.70
2022-12-03T01:42:23.951Z,7.00
2022-12-03T01:44:55.525Z,6.60
2022-12-03T01:47:25.681Z,6.70
2022-12-03T01:49:56.640Z,6.60
2022-12-03T01:52:30.612Z,6.70
2022-12-03T01:54:58.487Z,6.50
2022-12-03T01:57:27.552Z,6.50
2022-12-03T01:59:55.728Z,6.70
2022-12-03T02:02:24.666Z,6.60
2022-12-03T02:04:53.273Z,6.70
2022-12-03T02:07:34.777Z,6.70
2022-12-03T02:10:02.275Z,6.60
2022-12-03T02:12:33.830Z,6.50
2022-12-03T02:15:00.808Z,6.80
2022-12-03T02:17:27.849Z,6.60
2022-12-03T02:19:55.068Z,6.50
2022-12-03T02:22:27.977Z,6.40
2022-12-03T02:25:13.548Z,6.50
2022-12-03T02:27:40.651Z,6.50
2022-12-03T02:30:08.355Z,6.70
2022-12-03T02:32:35.263Z,6.50
2022-12-03T02:35:02.201Z,6.80
2022-12-03T02:37:35.817Z,6.80
2022-12-03T02:40:04.884Z,6.50
2022-12-03T02:42:37.714Z,6.60
2022-12-03T02:45:12.725Z,6.70
2022-12-03T02:47:44.749Z,6.70
2022-12-03T02:50:12.606Z,6.80
2022-12-03T02:52:39.829Z,6.60
2022-12-03T02:55:06.979Z,6.60
2022-12-03T02:57:34.893Z,6.60
2022-12-03T03:00:02.052Z,6.80
2022-12-03T03:02:29.055Z,6.80
2022-12-03T03:04:56.343Z,6.80
2022-12-03T03:07:23.372Z,6.90
2022-12-03T03:09:50.270Z,6.60
2022-12-03T03:12:17.254Z,6.70
2022-12-03T03:14:44.283Z,6.70
2022-12-03T03:17:11.589Z,6.50
2022-12-03T03:19:38.517Z,6.80
2022-12-03T03:22:05.553Z,6.50
2022-12-03T03:24:32.421Z,6.60
2022-12-03T03:26:59.348Z,6.60
2022-12-03T03:29:26.233Z,6.60
2022-12-03T03:31:53.140Z,6.60
2022-12-03T03:34:20.081Z,6.70
2022-12-03T03:36:47.035Z,6.60
2022-12-03T03:39:13.966Z,6.60
2022-12-03T03:41:41.138Z,6.80
2022-12-03T03:44:08.105Z,6.60
2022-12-03T03:46:35.383Z,6.60
2022-12-03T03:49:03.789Z,6.60
2022-12-03T03:51:30.897Z,6.60
2022-12-03T03:53:57.794Z,6.60
2022-12-03T03:56:24.679Z,6.10
2022-12-03T03:58:51.562Z,6.80
2022-12-03T04:01:18.560Z,6.70
2022-12-03T04:03:45.627Z,6.60
2022-12-03T04:06:12.599Z,6.70
2022-12-03T04:08:39.510Z,6.70
2022-12-03T04:11:25.225Z,6.70
2022-12-03T04:13:52.215Z,6.60
2022-12-03T04:16:19.226Z,6.70
2022-12-03T04:18:47.376Z,6.60
2022-12-03T04:21:34.362Z,6.60
2022-12-03T04:24:01.917Z,6.50
2022-12-03T04:26:47.401Z,6.50
2022-12-03T04:29:18.002Z,6.30
2022-12-03T04:32:03.486Z,6.60
2022-12-03T04:34:48.989Z,6.80
2022-12-03T04:37:15.938Z,6.90
2022-12-03T04:39:42.824Z,6.70
2022-12-03T04:42:09.703Z,6.50
2022-12-03T04:44:36.673Z,6.50
2022-12-03T04:47:17.326Z,6.50
2022-12-03T04:49:45.901Z,6.60
2022-12-03T04:52:13.484Z,6.70
2022-12-03T04:54:40.476Z,6.50
2022-12-03T04:57:07.920Z,6.40
2022-12-03T04:59:35.142Z,6.40
2022-12-03T05:02:02.361Z,6.60
2022-12-03T05:04:29.363Z,6.50
2022-12-03T05:06:56.266Z,6.40
2022-12-03T05:09:23.249Z,6.50
2022-12-03T05:11:50.176Z,6.60
2022-12-03T05:14:17.100Z,6.50
2022-12-03T05:16:44.066Z,6.60
2022-12-03T05:19:11.093Z,6.40
2022-12-03T05:21:38.084Z,6.60
2022-12-03T05:24:05.442Z,6.60
2022-12-03T05:26:32.299Z,6.50
2022-12-03T05:29:01.344Z,6.30
2022-12-03T05:31:28.346Z,6.30
2022-12-03T05:33:55.300Z,6.40
2022-12-03T05:36:22.340Z,6.30
2022-12-03T05:38:49.212Z,6.20
2022-12-03T05:41:34.807Z,6.30
2022-12-03T05:44:01.774Z,6.40
2022-12-03T05:46:28.724Z,6.30
2022-12-03T05:48:55.695Z,6.30
2022-12-03T05:51:22.637Z,6.60
2022-12-03T05:53:49.528Z,6.40
2022-12-03T05:56:16.459Z,6.50
2022-12-03T05:58:43.364Z,6.50
2022-12-03T06:01:10.303Z,6.40
2022-12-03T06:03:37.314Z,6.30
2022-12-03T06:06:04.906Z,6.30
2022-12-03T06:08:32.030Z,6.60
2022-12-03T06:10:58.962Z,6.30
2022-12-03T06:13:25.886Z,6.50
2022-12-03T06:15:52.914Z,6.40
2022-12-03T06:18:19.968Z,6.70
2022-12-03T06:20:46.887Z,6.80
2022-12-03T06:23:13.887Z,6.70
2022-12-03T06:25:40.844Z,6.50
2022-12-03T06:28:07.796Z,6.60
2022-12-03T06:30:36.021Z,6.40
2022-12-03T06:33:03.107Z,6.50
2022-12-03T06:35:30.186Z,6.50
2022-12-03T06:37:57.195Z,6.70
2022-12-03T06:40:25.128Z,6.60
2022-12-03T06:42:52.455Z,6.50
2022-12-03T06:45:19.448Z,6.40
2022-12-03T06:47:46.578Z,6.50
2022-12-03T06:50:13.918Z,6.60
2022-12-03T06:52:40.870Z,6.60
2022-12-03T06:55:08.347Z,6.60
2022-12-03T06:57:35.313Z,6.60
2022-12-03T07:00:03.742Z,6.60
2022-12-03T07:02:30.926Z,6.60
2022-12-03T07:04:58.263Z,6.80
2022-12-03T07:07:25.445Z,6.60
2022-12-03T07:09:52.413Z,6.70
2022-12-03T07:12:19.357Z,6.60
2022-12-03T07:14:46.230Z,6.20
2022-12-03T07:17:13.265Z,6.70
2022-12-03T07:19:40.738Z,6.30
2022-12-03T07:22:07.599Z,6.50
2022-12-03T07:24:34.584Z,6.40
2022-12-03T07:27:01.631Z,6.60
2022-12-03T07:29:28.537Z,6.50
2022-12-03T07:31:55.523Z,6.40
2022-12-03T07:34:22.572Z,6.40
2022-12-03T07:36:49.538Z,6.40
2022-12-03T07:39:16.532Z,6.50
2022-12-03T07:41:43.466Z,6.40
2022-12-03T07:44:14.262Z,6.50
2022-12-03T07:46:42.196Z,6.40
2022-12-03T07:49:09.452Z,6.50
2022-12-03T07:51:36.472Z,6.60
2022-12-03T07:54:03.659Z,6.40
2022-12-03T07:56:30.580Z,6.80
2022-12-03T07:58:57.491Z,6.60
2022-12-03T08:01:24.397Z,6.50
2022-12-03T08:03:51.360Z,6.50
2022-12-03T08:06:18.274Z,6.50
2022-12-03T08:08:45.177Z,6.50
2022-12-03T08:11:14.171Z,6.50
2022-12-03T08:13:41.094Z,6.40
2022-12-03T08:16:26.633Z,6.60
2022-12-03T08:18:58.832Z,6.50
2022-12-03T08:21:36.530Z,6.60
2022-12-03T08:24:23.948Z,6.70
2022-12-03T08:26:50.870Z,6.60
2022-12-03T08:29:18.962Z,6.60
2022-12-03T08:31:54.844Z,6.80
2022-12-03T08:34:24.234Z,6.60
2022-12-03T08:36:52.498Z,6.40
2022-12-03T08:39:29.891Z,6.70
2022-12-03T08:42:37.294Z,6.50
2022-12-03T08:45:32.185Z,6.70
2022-12-03T08:48:00.918Z,6.50
2022-12-03T08:50:41.857Z,6.90
2022-12-03T08:53:21.228Z,6.60
2022-12-03T08:55:52.819Z,6.60
2022-12-03T08:58:32.214Z,6.70
2022-12-03T09:01:13.057Z,6.80
2022-12-03T09:03:46.502Z,6.50
2022-12-03T09:06:13.420Z,6.90
2022-12-03T09:08:40.292Z,6.80
2022-12-03T09:11:07.196Z,7.00
2022-12-03T09:13:34.150Z,7.10
2022-12-03T09:16:01.168Z,6.70
2022-12-03T09:18:28.096Z,7.00
2022-12-03T09:20:56.570Z,6.80
2022-12-03T09:23:23.838Z,7.20
2022-12-03T09:25:50.734Z,6.90
2022-12-03T09:28:17.736Z,7.10
2022-12-03T09:30:44.647Z,7.20
2022-12-03T09:33:11.655Z,6.90
2022-12-03T09:35:38.722Z,7.00
2022-12-03T09:38:05.842Z,7.20
2022-12-03T09:40:32.826Z,7.10
2022-12-03T09:42:59.799Z,7.30
2022-12-03T09:45:26.715Z,7.20
2022-12-03T09:47:53.718Z,7.20
2022-12-03T09:50:25.167Z,7.30
2022-12-03T09:52:55.111Z,7.40
2022-12-03T09:55:23.645Z,7.40
2022-12-03T09:57:53.007Z,7.30
2022-12-03T10:00:24.940Z,7.40
2022-12-03T10:02:53.071Z,7.60
2022-12-03T10:05:20.507Z,7.80
2022-12-03T10:07:51.374Z,7.70
2022-12-03T10:10:22.861Z,7.80
2022-12-03T10:12:51.323Z,7.50
2022-12-03T10:15:20.065Z,7.80
2022-12-03T10:17:47.149Z,7.80
2022-12-03T10:20:15.558Z,8.00
2022-12-03T10:22:43.020Z,7.80
2022-12-03T10:25:11.784Z,7.80
2022-12-03T10:27:38.867Z,8.00
2022-12-03T10:30:19.694Z,8.00
2022-12-03T10:32:51.079Z,8.00
2022-12-03T10:35:20.792Z,8.00
2022-12-03T10:38:24.673Z,8.10
2022-12-03T10:40:51.633Z,8.10
2022-12-03T10:43:18.544Z,7.90
2022-12-03T10:45:50.007Z,7.90
2022-12-03T10:48:25.652Z,8.20
2022-12-03T10:50:53.500Z,7.90
2022-12-03T10:53:24.714Z,8.20
2022-12-03T10:55:52.215Z,7.90
2022-12-03T10:58:22.013Z,8.20
2022-12-03T11:00:50.169Z,8.30
2022-12-03T11:03:26.742Z,7.90
2022-12-03T11:05:54.351Z,8.20
2022-12-03T11:08:22.830Z,8.20
2022-12-03T11:11:08.952Z,8.20
2022-12-03T11:13:35.829Z,8.20
2022-12-03T11:16:04.336Z,8.30
2022-12-03T11:18:37.384Z,8.40
2022-12-03T11:21:11.849Z,8.40
2022-12-03T11:23:45.009Z,8.50
2022-12-03T11:26:19.996Z,8.50
2022-12-03T11:28:47.071Z,8.50
2022-12-03T11:31:43.621Z,8.60
2022-12-03T11:34:19.866Z,8.40
2022-12-03T11:37:11.494Z,8.50
2022-12-03T11:39:55.897Z,8.50
2022-12-03T11:42:25.758Z,8.40
2022-12-03T11:45:04.808Z,8.60
2022-12-03T11:47:59.938Z,8.20
2022-12-03T11:50:40.199Z,8.40
2022-12-03T11:53:16.828Z,8.30
2022-12-03T11:55:51.874Z,8.40
2022-12-03T11:58:29.655Z,8.50
2022-12-03T12:00:58.337Z,8.60
2022-12-03T12:03:27.288Z,8.20
2022-12-03T12:06:11.177Z,8.30
2022-12-03T12:08:59.009Z,8.30
2022-12-03T12:11:26.827Z,8.40
2022-12-03T12:13:58.572Z,8.40
2022-12-03T12:16:51.324Z,8.30
2022-12-03T12:19:31.944Z,8.30
2022-12-03T12:22:26.898Z,8.40
2022-12-03T12:24:55.186Z,8.30
2022-12-03T12:27:37.783Z,8.10
2022-12-03T12:30:19.235Z,8.30
2022-12-03T12:32:50.500Z,8.40
2022-12-03T12:35:22.334Z,8.60
2022-12-03T12:38:11.018Z,8.30
2022-12-03T12:40:42.649Z,8.70
2022-12-03T12:43:15.475Z,8.50
2022-12-03T12:45:44.801Z,8.50
2022-12-03T12:48:28.601Z,8.60
2022-12-03T12:51:22.082Z,8.70
2022-12-03T12:53:49.106Z,8.70
2022-12-03T12:56:26.169Z,8.50
2022-12-03T12:58:53.521Z,8.60
2022-12-03T13:01:22.440Z,8.70
2022-12-03T13:03:50.718Z,8.90
2022-12-03T13:06:18.266Z,8.80
2022-12-03T13:08:46.271Z,8.80
2022-12-03T13:11:34.604Z,8.60
2022-12-03T13:14:21.382Z,8.70
2022-12-03T13:16:49.549Z,8.70
2022-12-03T13:19:21.645Z,8.60
2022-12-03T13:21:48.907Z,8.70
2022-12-03T13:24:29.354Z,8.30
2022-12-03T13:26:56.905Z,8.40
2022-12-03T13:29:23.833Z,8.40
2022-12-03T13:32:01.878Z,8.60
2022-12-03T13:34:33.409Z,8.40
2022-12-03T13:37:01.282Z,8.30
2022-12-03T13:39:32.281Z,8.20
2022-12-03T13:42:31.626Z,8.30
2022-12-03T13:44:58.603Z,8.40
2022-12-03T13:47:25.599Z,8.30
2022-12-03T13:50:03.685Z,8.30
2022-12-03T13:52:31.063Z,8.10
2022-12-03T13:54:58.045Z,8.20
2022-12-03T13:57:25.402Z,8.20
2022-12-03T13:59:52.787Z,8.10
2022-12-03T14:02:20.176Z,8.20
2022-12-03T14:04:47.212Z,8.20
2022-12-03T14:07:14.125Z,8.30
2022-12-03T14:09:41.545Z,8.50
2022-12-03T14:12:26.497Z,8.20
2022-12-03T14:14:53.948Z,8.20
2022-12-03T14:17:20.999Z,8.20
2022-12-03T14:19:47.879Z,8.10
2022-12-03T14:22:14.908Z,8.40
2022-12-03T14:24:41.943Z,8.00
2022-12-03T14:27:08.826Z,8.10
2022-12-03T14:29:35.755Z,8.00
2022-12-03T14:32:02.676Z,8.00
2022-12-03T14:34:29.718Z,8.20
2022-12-03T14:36:56.730Z,7.90
2022-12-03T14:39:23.714Z,8.00
2022-12-03T14:42:09.039Z,7.90
2022-12-03T14:44:35.952Z,8.20
2022-12-03T14:47:02.827Z,8.00
2022-12-03T14:49:29.764Z,8.10
2022-12-03T14:51:56.731Z,8.00
2022-12-03T14:54:23.846Z,8.00
2022-12-03T14:56:50.771Z,7.90
2022-12-03T14:59:18.528Z,7.90
2022-12-03T15:01:47.616Z,7.90
2022-12-03T15:04:14.720Z,7.80
2022-12-03T15:06:42.401Z,8.00
2022-12-03T15:09:09.389Z,7.80
2022-12-03T15:11:40.166Z,8.00
2022-12-03T15:14:10.371Z,8.00
2022-12-03T15:16:39.925Z,8.00
2022-12-03T15:19:06.909Z,8.10
2022-12-03T15:21:35.047Z,8.10
2022-12-03T15:24:02.648Z,7.90
2022-12-03T15:26:29.693Z,7.80
2022-12-03T15:28:56.614Z,7.90
2022-12-03T15:31:23.872Z,7.70
2022-12-03T15:33:50.822Z,7.60
2022-12-03T15:36:17.782Z,7.80
2022-12-03T15:38:44.775Z,7.80
2022-12-03T15:41:21.482Z,7.70
2022-12-03T15:43:49.056Z,7.80
2022-12-03T15:46:16.121Z,7.80
2022-12-03T15:48:43.374Z,7.80
2022-12-03T15:51:10.447Z,7.60
2022-12-03T15:53:37.494Z,7.90
2022-12-03T15:56:04.620Z,7.60
2022-12-03T15:58:31.570Z,7.90
2022-12-03T16:00:58.822Z,7.80
2022-12-03T16:03:26.025Z,7.80
2022-12-03T16:05:53.921Z,7.80
2022-12-03T16:08:21.197Z,7.70
2022-12-03T16:10:48.113Z,7.70
2022-12-03T16:13:15.007Z,7.80
2022-12-03T16:15:42.085Z,7.60
2022-12-03T16:18:09.296Z,7.90
2022-12-03T16:20:36.261Z,7.60
2022-12-03T16:23:03.275Z,7.70
2022-12-03T16:25:30.203Z,7.90
2022-12-03T16:27:57.210Z,7.80
2022-12-03T16:30:24.821Z,7.50
2022-12-03T16:32:51.951Z,7.60
2022-12-03T16:35:18.838Z,7.70
2022-12-03T16:37:45.843Z,7.90
2022-12-03T16:40:12.859Z,7.60
2022-12-03T16:42:39.856Z,7.80
2022-12-03T16:45:10.399Z,7.70
2022-12-03T16:47:37.674Z,7.60
2022-12-03T16:50:06.621Z,7.60
2022-12-03T16:52:33.927Z,7.60
2022-12-03T16:55:01.010Z,7.50
2022-12-03T16:57:33.400Z,7.70
2022-12-03T17:00:01.025Z,7.50
2022-12-03T17:02:28.582Z,7.60
2022-12-03T17:04:55.505Z,7.70
2022-12-03T17:07:22.457Z,7.50
2022-12-03T17:09:49.606Z,7.60
2022-12-03T17:12:16.597Z,7.80
2022-12-03T17:14:43.561Z,7.60
2022-12-03T17:17:10.447Z,7.70
2022-12-03T17:19:37.345Z,7.60
2022-12-03T17:22:04.334Z,7.70
2022-12-03T17:24:31.236Z,7.60
2022-12-03T17:26:58.348Z,7.70
2022-12-03T17:29:25.345Z,7.50
2022-12-03T17:31:52.360Z,7.60
2022-12-03T17:34:19.451Z,7.40
2022-12-03T17:36:46.444Z,7.30
2022-12-03T17:39:13.381Z,7.40
2022-12-03T17:41:40.422Z,7.60
2022-12-03T17:44:10.717Z,7.40
2022-12-03T17:46:39.254Z,7.40
2022-12-03T17:49:06.271Z,7.60
2022-12-03T17:51:33.264Z,7.30
2022-12-03T17:54:00.871Z,7.60
2022-12-03T17:56:27.820Z,7.50
2022-12-03T17:58:54.732Z,7.60
2022-12-03T18:01:21.838Z,7.60
2022-12-03T18:03:48.915Z,7.50
2022-12-03T18:06:16.157Z,7.30
2022-12-03T18:08:43.321Z,7.30
2022-12-03T18:11:10.275Z,7.40
2022-12-03T18:13:37.285Z,7.30
2022-12-03T18:16:04.462Z,7.50
2022-12-03T18:18:31.425Z,7.50
2022-12-03T18:21:02.435Z,7.50
2022-12-03T18:23:29.569Z,7.30
2022-12-03T18:25:56.852Z,7.20
2022-12-03T18:28:23.887Z,7.50
2022-12-03T18:30:52.699Z,7.10
2022-12-03T18:33:21.303Z,7.10
2022-12-03T18:35:48.418Z,7.10
2022-12-03T18:38:15.774Z,6.90
2022-12-03T18:40:43.444Z,7.30
2022-12-03T18:43:14.578Z,7.20
2022-12-03T18:45:42.019Z,7.20
2022-12-03T18:48:13.310Z,7.00
2022-12-03T18:50:40.452Z,7.30
2022-12-03T18:53:13.007Z,7.00
2022-12-03T18:55:40.155Z,7.20
2022-12-03T18:58:07.180Z,7.10
2022-12-03T19:00:35.802Z,7.00
2022-12-03T19:03:04.203Z,7.10
2022-12-03T19:05:32.657Z,6.90
2022-12-03T19:07:59.892Z,7.10
2022-12-03T19:10:26.992Z,7.00
2022-12-03T19:12:53.993Z,7.00
2022-12-03T19:15:20.953Z,7.20
2022-12-03T19:17:49.275Z,6.90
2022-12-03T19:20:16.286Z,7.00
2022-12-03T19:22:43.226Z,6.90
2022-12-03T19:25:10.267Z,6.90
2022-12-03T19:27:37.181Z,6.70
2022-12-03T19:30:04.563Z,7.10
2022-12-03T19:32:31.668Z,7.00
2022-12-03T19:34:58.641Z,6.90
2022-12-03T19:37:25.513Z,6.90
2022-12-03T19:39:55.763Z,7.10
2022-12-03T19:42:23.014Z,6.90
2022-12-03T19:44:49.933Z,6.90
2022-12-03T19:47:16.865Z,7.00
2022-12-03T19:49:44.120Z,7.00
2022-12-03T19:52:11.102Z,6.70
2022-12-03T19:54:38.027Z,6.80
2022-12-03T19:57:04.964Z,6.40
2022-12-03T19:59:31.943Z,6.80
2022-12-03T20:01:59.015Z,6.60
2022-12-03T20:04:26.801Z,6.80
2022-12-03T20:06:53.727Z,6.80
2022-12-03T20:09:22.559Z,6.80
2022-12-03T20:11:50.793Z,6.90
2022-12-03T20:14:17.886Z,6.90
2022-12-03T20:16:45.215Z,6.70
2022-12-03T20:19:13.846Z,7.00
2022-12-03T20:21:41.355Z,6.80
2022-12-03T20:24:08.624Z,6.80
2022-12-03T20:26:35.594Z,6.70
2022-12-03T20:29:02.698Z,6.80
2022-12-03T20:31:30.576Z,6.90
2022-12-03T20:33:59.662Z,7.00
2022-12-03T20:36:27.197Z,6.60
2022-12-03T20:38:55.155Z,6.70
2022-12-03T20:41:22.332Z,6.80
2022-12-03T20:43:49.422Z,6.80
2022-12-03T20:46:24.021Z,6.60
2022-12-03T20:48:51.055Z,6.80
2022-12-03T20:51:19.453Z,6.70
2022-12-03T20:53:46.473Z,6.80
2022-12-03T20:56:20.640Z,6.20
2022-12-03T20:58:48.820Z,6.70
2022-12-03T21:01:35.937Z,6.80
2022-12-03T21:04:04.758Z,6.80
2022-12-03T21:06:32.074Z,6.20
2022-12-03T21:08:59.315Z,6.30
2022-12-03T21:11:29.732Z,6.50
2022-12-03T21:13:57.179Z,6.70
2022-12-03T21:16:52.165Z,6.70
2022-12-03T21:19:13.767Z,6.50
2022-12-03T21:21:40.727Z,6.60
2022-12-03T21:24:07.855Z,6.60
2022-12-03T21:26:34.774Z,6.30
2022-12-03T21:29:01.835Z,6.40
2022-12-03T21:31:30.382Z,6.60
2022-12-03T21:33:57.364Z,6.30
2022-12-03T21:36:25.008Z,6.50
2022-12-03T21:38:52.075Z,6.30
2022-12-03T21:41:19.044Z,6.40
2022-12-03T21:43:46.013Z,6.40
2022-12-03T21:47:10.610Z,6.50
2022-12-03T21:49:02.109Z,6.20
2022-12-03T21:51:29.113Z,6.30
2022-12-03T21:53:56.089Z,6.20
2022-12-03T21:56:23.342Z,6.20
2022-12-03T21:58:50.325Z,6.20
2022-12-03T22:01:19.928Z,6.10
2022-12-03T22:03:47.078Z,6.20
2022-12-03T22:06:14.374Z,6.10
2022-12-03T22:08:41.763Z,6.10
2022-12-03T22:11:12.806Z,6.10
2022-12-03T22:13:40.263Z,5.90
2022-12-03T22:16:08.890Z,6.20
2022-12-03T22:18:36.076Z,6.20
2022-12-03T22:21:06.996Z,6.10
2022-12-03T22:23:34.062Z,6.20
2022-12-03T22:26:03.076Z,6.20
2022-12-03T22:28:30.342Z,6.20
2022-12-03T22:30:57.276Z,6.00
2022-12-03T22:33:24.417Z,6.20
2022-12-03T22:35:58.906Z,6.20
2022-12-03T22:38:25.860Z,6.20
2022-12-03T22:40:53.026Z,6.10
2022-12-03T22:43:20.300Z,6.40
2022-12-03T22:45:47.389Z,6.20
2022-12-03T22:48:14.697Z,6.20
2022-12-03T22:50:45.320Z,6.20
2022-12-03T22:53:12.799Z,6.30
2022-12-03T22:55:39.966Z,6.10
2022-12-03T22:58:07.527Z,6.30
2022-12-03T23:00:36.465Z,6.50
2022-12-03T23:03:03.682Z,6.00
2022-12-03T23:05:32.854Z,6.40
2022-12-03T23:08:00.352Z,6.30
2022-12-03T23:10:30.987Z,6.30
2022-12-03T23:13:00.901Z,6.50
2022-12-03T23:15:28.151Z,6.40
2022-12-03T23:17:55.289Z,6.50
2022-12-03T23:20:22.460Z,6.30
2022-12-03T23:22:49.448Z,6.30
2022-12-03T23:25:17.621Z,6.30
2022-12-03T23:27:44.853Z,6.30
2022-12-03T23:30:12.251Z,6.70
2022-12-03T23:32:39.250Z,6.30
2022-12-03T23:35:06.777Z,6.60
2022-12-03T23:37:33.722Z,6.40
2022-12-03T23:40:00.732Z,6.40
2022-12-03T23:42:27.699Z,6.60
2022-12-03T23:44:54.898Z,6.50
2022-12-03T23:47:21.887Z,6.50
2022-12-03T23:49:48.860Z,6.40
2022-12-03T23:52:15.858Z,6.70
2022-12-03T23:54:42.967Z,6.60
2022-12-03T23:57:10.001Z,6.40
2022-12-03T23:59:36.976Z,6.40
